West Glenwood, Colorado
Current Conditions -  °F | °C
As of 12:55 AM on Monday 22 Dec 2014 (Local Time) from KEGE Reporting Station
Broken Clouds Broken Clouds  
Wind Chill: 34°   Ceiling: 4900
Heat Index: 34°   Visibility: 10mi
Dew Point: 32°   Wind: 3mph
Humidity: 93%   Direction: 270°W
Pressure: 29.83"   Gusts: NA
Location:  39.6119°N, 107.29°W
Report Text: KEGE 220755Z AUTO 27003KT 10SM FEW009 SCT035 BKN049 01/00 A2983 RMK AO1
Loading
Personal Weather Stations






























Interactive Weather Map New forecast layout! Learn more

10-Day Weather Forecast

Advertisements
Track Severe Weather on mobile